createdAt,value
2023-05-14T00:00:10.828Z,9.20
2023-05-14T00:01:10.811Z,9.10
2023-05-14T00:02:10.852Z,8.80
2023-05-14T00:03:11.149Z,8.80
2023-05-14T00:04:10.842Z,8.50
2023-05-14T00:05:10.777Z,8.90
2023-05-14T00:06:10.797Z,8.70
2023-05-14T00:07:10.798Z,8.60
2023-05-14T00:08:10.743Z,8.70
2023-05-14T00:09:10.725Z,8.10
2023-05-14T00:10:10.718Z,8.00
2023-05-14T00:11:10.774Z,8.20
2023-05-14T00:12:10.708Z,8.20
2023-05-14T00:13:10.705Z,8.30
2023-05-14T00:14:10.719Z,8.10
2023-05-14T00:15:10.672Z,8.50
2023-05-14T00:16:10.727Z,8.00
2023-05-14T00:17:10.648Z,7.90
2023-05-14T00:18:10.660Z,8.20
2023-05-14T00:19:10.710Z,8.60
2023-05-14T00:20:10.608Z,8.30
2023-05-14T00:21:10.641Z,8.10
2023-05-14T00:22:10.589Z,8.50
2023-05-14T00:23:10.574Z,8.20
2023-05-14T00:24:10.602Z,8.10
2023-05-14T00:25:10.591Z,8.30
2023-05-14T00:26:10.536Z,7.70
2023-05-14T00:27:10.530Z,8.10
2023-05-14T00:28:10.549Z,7.90
2023-05-14T00:29:10.515Z,8.00
2023-05-14T00:30:10.538Z,7.80
2023-05-14T00:31:10.535Z,8.30
2023-05-14T00:32:10.482Z,8.50
2023-05-14T00:33:10.465Z,8.20
2023-05-14T00:34:10.495Z,8.30
2023-05-14T00:35:10.437Z,7.60
2023-05-14T00:36:10.437Z,7.80
2023-05-14T00:37:10.436Z,8.00
2023-05-14T00:38:10.452Z,7.80
2023-05-14T00:39:10.398Z,7.90
2023-05-14T00:40:10.398Z,7.40
2023-05-14T00:41:10.373Z,7.40
2023-05-14T00:42:10.433Z,7.60
2023-05-14T00:43:10.512Z,7.80
2023-05-14T00:44:10.354Z,8.00
2023-05-14T00:45:10.372Z,8.00
2023-05-14T00:46:10.386Z,7.70
2023-05-14T00:47:10.345Z,7.70
2023-05-14T00:48:10.307Z,8.10
2023-05-14T00:49:10.330Z,7.80
2023-05-14T00:50:10.332Z,8.10
2023-05-14T00:51:10.272Z,8.40
2023-05-14T00:52:10.257Z,7.80
2023-05-14T00:53:10.275Z,8.30
2023-05-14T00:54:10.314Z,7.50
2023-05-14T00:55:10.224Z,7.80
2023-05-14T00:56:10.216Z,7.90
2023-05-14T00:57:10.221Z,8.10
2023-05-14T00:58:10.209Z,8.00
2023-05-14T00:59:10.242Z,8.10
2023-05-14T01:00:10.199Z,7.90
2023-05-14T01:01:10.234Z,8.60
2023-05-14T01:02:10.157Z,8.20
2023-05-14T01:03:10.204Z,8.00
2023-05-14T01:04:10.140Z,8.10
2023-05-14T01:05:10.166Z,8.70
2023-05-14T01:06:10.112Z,8.00
2023-05-14T01:07:10.103Z,8.20
2023-05-14T01:08:10.125Z,7.80
2023-05-14T01:09:10.083Z,7.90
2023-05-14T01:10:10.068Z,8.00
2023-05-14T01:11:10.054Z,7.50
2023-05-14T01:12:10.058Z,7.80
2023-05-14T01:13:10.038Z,7.80
2023-05-14T01:14:10.056Z,7.90
2023-05-14T01:15:10.012Z,7.90
2023-05-14T01:16:10.055Z,7.70
2023-05-14T01:17:09.984Z,7.90
2023-05-14T01:18:10.013Z,8.20
2023-05-14T01:19:10.173Z,7.30
2023-05-14T01:20:09.958Z,7.70
2023-05-14T01:21:10.152Z,7.60
2023-05-14T01:22:09.939Z,7.50
2023-05-14T01:23:09.914Z,7.40
2023-05-14T01:24:09.924Z,8.10
2023-05-14T01:25:09.907Z,7.80
2023-05-14T01:26:09.903Z,8.20
2023-05-14T01:27:10.986Z,8.20
2023-05-14T01:28:09.869Z,8.30
2023-05-14T01:29:09.849Z,8.00
2023-05-14T01:30:09.852Z,9.20
2023-05-14T01:31:09.858Z,9.70
2023-05-14T01:32:09.945Z,10.40
2023-05-14T01:33:10.016Z,10.30
2023-05-14T01:34:09.831Z,10.60
2023-05-14T01:35:09.848Z,10.70
2023-05-14T01:36:09.809Z,10.10
2023-05-14T01:37:09.786Z,9.80
2023-05-14T01:38:09.769Z,9.60
2023-05-14T01:39:09.768Z,10.20
2023-05-14T01:40:09.792Z,9.50
2023-05-14T01:41:09.742Z,10.60
2023-05-14T01:42:09.734Z,10.70
2023-05-14T01:43:09.733Z,10.70
2023-05-14T01:44:09.697Z,11.30
2023-05-14T01:45:09.676Z,11.20
2023-05-14T01:46:09.842Z,11.10
2023-05-14T01:47:09.657Z,12.10
2023-05-14T01:48:09.683Z,11.80
2023-05-14T01:49:09.631Z,11.10
2023-05-14T01:50:09.630Z,11.20
2023-05-14T01:51:09.646Z,10.30
2023-05-14T01:52:09.624Z,10.70
2023-05-14T01:53:09.595Z,10.80
2023-05-14T01:54:09.586Z,10.30
2023-05-14T01:55:09.603Z,11.60
2023-05-14T01:56:09.604Z,11.30
2023-05-14T01:57:09.583Z,10.60
2023-05-14T01:58:09.540Z,10.50
2023-05-14T01:59:09.520Z,10.10
2023-05-14T02:00:09.601Z,10.50
2023-05-14T02:01:09.613Z,9.90
2023-05-14T02:02:09.501Z,10.60
2023-05-14T02:03:11.070Z,10.30
2023-05-14T02:04:09.592Z,10.90
2023-05-14T02:05:09.468Z,10.90
2023-05-14T02:06:09.451Z,11.20
2023-05-14T02:07:09.444Z,12.00
2023-05-14T02:08:09.464Z,10.70
2023-05-14T02:09:09.418Z,10.90
2023-05-14T02:10:09.412Z,10.80
2023-05-14T02:11:09.399Z,10.60
2023-05-14T02:12:09.419Z,10.90
2023-05-14T02:13:09.381Z,11.30
2023-05-14T02:14:09.548Z,10.80
2023-05-14T02:15:09.355Z,10.60
2023-05-14T02:16:09.384Z,11.40
2023-05-14T02:17:09.361Z,11.10
2023-05-14T02:18:09.366Z,10.90
2023-05-14T02:19:09.453Z,11.80
2023-05-14T02:20:09.308Z,12.00
2023-05-14T02:21:09.396Z,11.60
2023-05-14T02:22:09.320Z,11.10
2023-05-14T02:23:09.329Z,11.00
2023-05-14T02:24:09.268Z,10.50
2023-05-14T02:25:09.290Z,10.90
2023-05-14T02:26:09.246Z,11.80
2023-05-14T02:27:11.857Z,12.10
2023-05-14T02:28:09.217Z,35.40
2023-05-14T02:29:09.216Z,27.30
2023-05-14T02:30:09.191Z,16.50
2023-05-14T02:31:09.280Z,13.40
2023-05-14T02:32:09.241Z,16.90
2023-05-14T02:33:09.250Z,13.70
2023-05-14T02:34:09.153Z,11.50
2023-05-14T02:35:09.146Z,11.60
2023-05-14T02:36:09.136Z,11.00
2023-05-14T02:37:09.441Z,10.40
2023-05-14T02:38:09.204Z,11.80
2023-05-14T02:39:09.086Z,10.60
2023-05-14T02:40:09.093Z,10.00
2023-05-14T02:41:09.097Z,10.10
2023-05-14T02:42:09.063Z,10.20
2023-05-14T02:43:09.090Z,10.10
2023-05-14T02:44:09.076Z,10.40
2023-05-14T02:45:09.041Z,10.40
2023-05-14T02:46:09.024Z,10.30
2023-05-14T02:47:09.080Z,10.20
2023-05-14T02:48:09.096Z,10.90
2023-05-14T02:49:09.003Z,10.50
2023-05-14T02:50:09.002Z,10.40
2023-05-14T02:51:08.963Z,11.40
2023-05-14T02:52:08.967Z,10.70
2023-05-14T02:53:08.997Z,10.40
2023-05-14T02:54:08.957Z,10.70
2023-05-14T02:55:08.940Z,10.50
2023-05-14T02:56:08.949Z,10.30
2023-05-14T02:57:08.902Z,12.70
2023-05-14T02:58:08.898Z,10.80
2023-05-14T02:59:08.892Z,19.90
2023-05-14T03:00:08.876Z,14.30
2023-05-14T03:01:08.945Z,13.60
2023-05-14T03:02:08.899Z,11.00
2023-05-14T03:03:08.898Z,13.20
2023-05-14T03:04:08.827Z,11.30
2023-05-14T03:05:08.838Z,11.20
2023-05-14T03:06:08.802Z,11.20
2023-05-14T03:07:08.808Z,11.20
2023-05-14T03:08:08.784Z,17.80
2023-05-14T03:09:08.804Z,13.20
2023-05-14T03:10:08.801Z,12.30
2023-05-14T03:11:08.770Z,11.90
2023-05-14T03:12:08.822Z,11.40
2023-05-14T03:13:08.752Z,11.80
2023-05-14T03:14:08.755Z,11.20
2023-05-14T03:15:08.718Z,11.30
2023-05-14T03:16:08.693Z,12.10
2023-05-14T03:17:08.854Z,14.20
2023-05-14T03:18:08.732Z,13.80
2023-05-14T03:19:08.790Z,12.90
2023-05-14T03:20:08.704Z,14.50
2023-05-14T03:21:08.663Z,14.60
2023-05-14T03:22:08.657Z,11.80
2023-05-14T03:23:08.623Z,12.10
2023-05-14T03:24:08.613Z,12.10
2023-05-14T03:25:10.459Z,12.00
2023-05-14T03:26:08.626Z,12.60
2023-05-14T03:27:08.588Z,12.30
2023-05-14T03:28:08.571Z,12.60
2023-05-14T03:29:08.558Z,37.40
2023-05-14T03:30:08.595Z,13.40
2023-05-14T03:31:08.595Z,12.00
2023-05-14T03:32:08.525Z,12.10
2023-05-14T03:33:08.590Z,12.00
2023-05-14T03:34:08.508Z,12.60
2023-05-14T03:35:08.516Z,18.20
2023-05-14T03:36:08.482Z,15.10
2023-05-14T03:37:08.528Z,15.90
2023-05-14T03:38:08.500Z,14.90
2023-05-14T03:39:08.457Z,13.50
2023-05-14T03:40:08.439Z,12.80
2023-05-14T03:41:08.434Z,12.40
2023-05-14T03:42:08.444Z,12.20
2023-05-14T03:43:08.467Z,13.20
2023-05-14T03:44:08.393Z,13.80
2023-05-14T03:45:08.441Z,13.10
2023-05-14T03:46:08.370Z,13.80
2023-05-14T03:47:08.377Z,14.00
2023-05-14T03:48:08.485Z,14.30
2023-05-14T03:49:08.513Z,15.80
2023-05-14T03:50:08.346Z,13.50
2023-05-14T03:51:08.338Z,12.90
2023-05-14T03:52:08.308Z,12.80
2023-05-14T03:53:08.303Z,12.70
2023-05-14T03:54:08.349Z,13.20
2023-05-14T03:55:08.999Z,13.30
2023-05-14T03:56:08.290Z,13.10
2023-05-14T03:57:08.265Z,13.60
2023-05-14T03:58:08.262Z,13.80
2023-05-14T03:59:08.244Z,13.70
2023-05-14T04:00:18.394Z,24.20
2023-05-14T04:01:08.230Z,34.80
2023-05-14T04:02:08.213Z,23.20
2023-05-14T04:03:08.394Z,28.90
2023-05-14T04:04:08.362Z,15.40
2023-05-14T04:05:08.174Z,13.40
2023-05-14T04:06:08.156Z,54.10
2023-05-14T04:07:08.150Z,41.30
2023-05-14T04:08:08.125Z,14.60
2023-05-14T04:09:08.134Z,13.10
2023-05-14T04:10:08.141Z,14.40
2023-05-14T04:11:08.103Z,22.00
2023-05-14T04:12:08.089Z,21.60
2023-05-14T04:13:08.088Z,21.90
2023-05-14T04:14:08.070Z,19.50
2023-05-14T04:15:08.102Z,22.80
2023-05-14T04:16:08.074Z,21.80
2023-05-14T04:17:08.042Z,23.20
2023-05-14T04:18:08.165Z,26.70
2023-05-14T04:19:08.135Z,25.70
2023-05-14T04:20:08.015Z,22.70
2023-05-14T04:21:07.996Z,22.30
2023-05-14T04:22:08.002Z,42.20
2023-05-14T04:23:08.000Z,61.40
2023-05-14T04:24:07.962Z,44.90
2023-05-14T04:25:07.966Z,57.10
2023-05-14T04:26:07.945Z,40.40
2023-05-14T04:27:07.934Z,26.20
2023-05-14T04:28:07.952Z,20.80
2023-05-14T04:29:07.916Z,20.60
2023-05-14T04:30:07.891Z,19.10
2023-05-14T04:31:07.880Z,17.70
2023-05-14T04:32:08.069Z,31.50
2023-05-14T04:33:08.959Z,25.50
2023-05-14T04:34:07.878Z,20.40
2023-05-14T04:35:07.840Z,17.80
2023-05-14T04:36:07.828Z,15.60
2023-05-14T04:37:07.828Z,13.50
2023-05-14T04:38:07.843Z,12.40
2023-05-14T04:39:07.807Z,13.10
2023-05-14T04:40:07.966Z,12.60
2023-05-14T04:41:07.777Z,13.60
2023-05-14T04:42:07.775Z,13.50
2023-05-14T04:43:07.773Z,13.70
2023-05-14T04:44:07.745Z,13.90
2023-05-14T04:45:07.737Z,14.20
2023-05-14T04:46:07.784Z,13.30
2023-05-14T04:47:07.728Z,12.70
2023-05-14T04:48:07.852Z,14.90
2023-05-14T04:49:07.711Z,14.00
2023-05-14T04:50:08.486Z,15.00
2023-05-14T04:51:07.685Z,15.20
2023-05-14T04:52:07.702Z,13.70
2023-05-14T04:53:07.660Z,14.90
2023-05-14T04:54:07.765Z,15.70
2023-05-14T04:55:07.657Z,15.20
2023-05-14T04:56:07.675Z,14.10
2023-05-14T04:57:07.614Z,14.80
2023-05-14T04:58:07.588Z,14.30
2023-05-14T04:59:07.611Z,14.70
2023-05-14T05:00:09.303Z,24.60
2023-05-14T05:01:07.636Z,19.60
2023-05-14T05:02:08.362Z,27.20
2023-05-14T05:03:07.645Z,27.60
2023-05-14T05:04:07.594Z,18.70
2023-05-14T05:05:07.550Z,16.70
2023-05-14T05:06:08.094Z,16.10
2023-05-14T05:07:07.514Z,17.50
2023-05-14T05:08:07.486Z,15.80
2023-05-14T05:09:07.489Z,15.60
2023-05-14T05:10:07.481Z,16.70
2023-05-14T05:11:07.471Z,15.80
2023-05-14T05:12:07.445Z,15.10
2023-05-14T05:13:07.466Z,15.00
2023-05-14T05:14:07.422Z,15.10
2023-05-14T05:15:07.412Z,15.10
2023-05-14T05:16:07.478Z,15.00
2023-05-14T05:17:07.389Z,14.60
2023-05-14T05:18:07.459Z,15.00
2023-05-14T05:19:07.382Z,15.40
2023-05-14T05:20:07.389Z,14.40
2023-05-14T05:21:07.404Z,14.40
2023-05-14T05:22:07.342Z,16.00
2023-05-14T05:23:07.356Z,13.90
2023-05-14T05:24:07.311Z,16.20
2023-05-14T05:25:07.320Z,14.70
2023-05-14T05:26:07.349Z,15.40
2023-05-14T05:27:07.294Z,14.30
2023-05-14T05:28:07.281Z,39.90
2023-05-14T05:29:07.276Z,20.10
2023-05-14T05:30:07.279Z,18.60
2023-05-14T05:31:07.438Z,85.80
2023-05-14T05:32:07.224Z,25.00
2023-05-14T05:33:07.330Z,21.60
2023-05-14T05:34:07.213Z,20.10
2023-05-14T05:35:07.198Z,16.90
2023-05-14T05:36:07.193Z,16.30
2023-05-14T05:37:07.202Z,15.00
2023-05-14T05:38:07.170Z,14.90
2023-05-14T05:39:07.146Z,15.00
2023-05-14T05:40:07.204Z,14.10
2023-05-14T05:41:07.130Z,15.30
2023-05-14T05:42:07.349Z,15.10
2023-05-14T05:43:07.156Z,15.50
2023-05-14T05:44:07.102Z,15.10
2023-05-14T05:45:09.782Z,15.90
2023-05-14T05:46:07.094Z,15.70
2023-05-14T05:47:07.085Z,15.10
2023-05-14T05:48:07.115Z,15.30
2023-05-14T05:49:07.048Z,14.90
2023-05-14T05:50:07.990Z,15.50
2023-05-14T05:51:07.084Z,15.20
2023-05-14T05:52:06.997Z,14.80
2023-05-14T05:53:07.003Z,15.20
2023-05-14T05:54:06.986Z,15.00
2023-05-14T05:55:06.978Z,15.30
2023-05-14T05:56:07.001Z,15.80
2023-05-14T05:57:06.967Z,15.60
2023-05-14T05:58:07.030Z,15.10
2023-05-14T05:59:06.929Z,14.80
2023-05-14T06:00:09.258Z,14.90
2023-05-14T06:01:06.913Z,15.10
2023-05-14T06:02:06.933Z,14.70
2023-05-14T06:03:06.936Z,14.00
2023-05-14T06:04:06.868Z,14.20
2023-05-14T06:05:06.957Z,14.10
2023-05-14T06:06:06.916Z,13.90
2023-05-14T06:07:06.843Z,15.90
2023-05-14T06:08:06.833Z,20.00
2023-05-14T06:09:06.859Z,15.90
2023-05-14T06:10:06.819Z,14.10
2023-05-14T06:11:06.799Z,13.50
2023-05-14T06:12:06.824Z,13.90
2023-05-14T06:13:06.789Z,13.70
2023-05-14T06:14:06.765Z,12.50
2023-05-14T06:15:06.761Z,13.50
2023-05-14T06:16:06.806Z,13.10
2023-05-14T06:17:06.737Z,13.30
2023-05-14T06:18:06.768Z,13.70
2023-05-14T06:19:06.791Z,14.00
2023-05-14T06:20:06.718Z,13.30
2023-05-14T06:21:06.696Z,13.60
2023-05-14T06:22:06.712Z,13.00
2023-05-14T06:23:06.677Z,13.10
2023-05-14T06:24:06.675Z,13.20
2023-05-14T06:25:06.666Z,12.40
2023-05-14T06:26:11.171Z,12.90
2023-05-14T06:27:06.628Z,13.10
2023-05-14T06:28:06.610Z,13.00
2023-05-14T06:29:06.618Z,13.00
2023-05-14T06:30:06.594Z,12.60
2023-05-14T06:31:06.594Z,12.10
2023-05-14T06:32:06.833Z,12.80
2023-05-14T06:33:08.801Z,12.40
2023-05-14T06:34:06.553Z,12.20
2023-05-14T06:35:06.546Z,12.20
2023-05-14T06:36:06.566Z,12.40
2023-05-14T06:37:06.560Z,23.50
2023-05-14T06:38:06.511Z,15.60
2023-05-14T06:39:06.510Z,14.00
2023-05-14T06:40:06.499Z,13.80
2023-05-14T06:41:06.515Z,14.50
2023-05-14T06:42:06.461Z,12.90
2023-05-14T06:43:06.464Z,12.90
2023-05-14T06:44:06.472Z,12.70
2023-05-14T06:45:06.451Z,12.00
2023-05-14T06:46:06.444Z,12.50
2023-05-14T06:47:06.469Z,12.70
2023-05-14T06:48:06.472Z,12.70
2023-05-14T06:49:06.432Z,12.60
2023-05-14T06:50:06.751Z,11.90
2023-05-14T06:51:06.362Z,11.80
2023-05-14T06:52:06.373Z,12.00
2023-05-14T06:53:06.365Z,11.90
2023-05-14T06:54:06.333Z,11.70
2023-05-14T06:55:06.327Z,11.00
2023-05-14T06:56:06.310Z,11.50
2023-05-14T06:57:06.307Z,11.60
2023-05-14T06:58:06.334Z,11.70
2023-05-14T06:59:06.273Z,11.20
2023-05-14T07:00:06.269Z,12.20
2023-05-14T07:01:06.274Z,11.40
2023-05-14T07:02:06.245Z,11.60
2023-05-14T07:03:06.282Z,12.00
2023-05-14T07:04:06.315Z,11.10
2023-05-14T07:05:06.255Z,11.00
2023-05-14T07:06:06.201Z,11.70
2023-05-14T07:07:06.216Z,11.50
2023-05-14T07:08:06.176Z,12.20
2023-05-14T07:09:06.163Z,12.00
2023-05-14T07:10:06.192Z,11.70
2023-05-14T07:11:06.151Z,11.90
2023-05-14T07:12:06.148Z,12.00
2023-05-14T07:13:06.148Z,11.00
2023-05-14T07:14:06.131Z,12.20
2023-05-14T07:15:08.454Z,11.50
2023-05-14T07:16:06.092Z,11.60
2023-05-14T07:17:06.289Z,11.00
2023-05-14T07:18:06.172Z,10.90
2023-05-14T07:19:06.098Z,11.50
2023-05-14T07:20:06.391Z,10.80
2023-05-14T07:21:06.064Z,11.30
2023-05-14T07:22:06.037Z,11.30
2023-05-14T07:23:06.014Z,11.10
2023-05-14T07:24:06.024Z,10.30
2023-05-14T07:25:07.899Z,10.90
2023-05-14T07:26:05.994Z,10.20
2023-05-14T07:27:06.000Z,11.00
2023-05-14T07:28:05.961Z,11.10
2023-05-14T07:29:05.944Z,11.30
2023-05-14T07:30:05.937Z,10.90
2023-05-14T07:31:05.992Z,11.00
2023-05-14T07:32:05.962Z,11.00
2023-05-14T07:33:08.120Z,11.10
2023-05-14T07:34:05.901Z,10.90
2023-05-14T07:35:05.920Z,11.10
2023-05-14T07:36:05.886Z,10.40
2023-05-14T07:37:05.877Z,19.10
2023-05-14T07:38:05.847Z,14.60
2023-05-14T07:39:05.847Z,11.50
2023-05-14T07:40:05.833Z,11.50
2023-05-14T07:41:06.204Z,10.70
2023-05-14T07:42:05.804Z,10.30
2023-05-14T07:43:05.847Z,10.30
2023-05-14T07:44:05.780Z,10.30
2023-05-14T07:45:05.787Z,10.00
2023-05-14T07:46:05.803Z,10.10
2023-05-14T07:47:05.889Z,9.50
2023-05-14T07:48:05.948Z,10.30
2023-05-14T07:49:05.744Z,9.60
2023-05-14T07:50:05.750Z,9.30
2023-05-14T07:51:05.718Z,9.40
2023-05-14T07:52:05.753Z,10.00
2023-05-14T07:53:05.758Z,9.60
2023-05-14T07:54:05.740Z,9.40
2023-05-14T07:55:05.660Z,9.10
2023-05-14T07:56:05.652Z,9.00
2023-05-14T07:57:05.745Z,9.10
2023-05-14T07:58:05.683Z,8.80
2023-05-14T07:59:05.637Z,8.60
2023-05-14T08:00:05.642Z,8.40
2023-05-14T08:01:05.598Z,8.80
2023-05-14T08:02:05.627Z,8.60
2023-05-14T08:03:05.738Z,8.40
2023-05-14T08:04:05.740Z,8.20
2023-05-14T08:05:05.549Z,8.00
2023-05-14T08:06:05.542Z,9.00
2023-05-14T08:07:05.526Z,10.70
2023-05-14T08:08:05.591Z,9.10
2023-05-14T08:09:05.597Z,8.20
2023-05-14T08:10:05.566Z,8.50
2023-05-14T08:11:05.632Z,8.80
2023-05-14T08:12:05.504Z,8.50
2023-05-14T08:13:05.463Z,8.30
2023-05-14T08:14:05.489Z,8.30
2023-05-14T08:15:05.467Z,7.80
2023-05-14T08:16:05.447Z,7.50
2023-05-14T08:17:05.477Z,7.50
2023-05-14T08:18:05.711Z,7.70
2023-05-14T08:19:05.458Z,8.00
2023-05-14T08:20:05.384Z,8.20
2023-05-14T08:21:05.401Z,7.90
2023-05-14T08:22:05.358Z,8.10
2023-05-14T08:23:05.350Z,8.30
2023-05-14T08:24:10.085Z,8.30
2023-05-14T08:25:05.323Z,7.80
2023-05-14T08:26:05.394Z,8.10
2023-05-14T08:27:05.344Z,8.60
2023-05-14T08:28:05.339Z,9.10
2023-05-14T08:29:05.301Z,9.60
2023-05-14T08:30:05.277Z,7.70
2023-05-14T08:31:05.388Z,7.90
2023-05-14T08:32:15.445Z,10.20
2023-05-14T08:33:06.268Z,9.50
2023-05-14T08:34:05.240Z,8.20
2023-05-14T08:35:05.222Z,8.40
2023-05-14T08:36:05.229Z,8.90
2023-05-14T08:37:05.262Z,8.10
2023-05-14T08:38:05.201Z,7.30
2023-05-14T08:39:05.328Z,7.70
2023-05-14T08:40:05.820Z,7.40
2023-05-14T08:41:05.194Z,7.70
2023-05-14T08:42:05.208Z,7.50
2023-05-14T08:43:05.144Z,7.80
2023-05-14T08:44:05.132Z,8.00
2023-05-14T08:45:05.130Z,7.60
2023-05-14T08:46:05.113Z,7.20
2023-05-14T08:47:05.732Z,7.20
2023-05-14T08:48:05.238Z,7.30
2023-05-14T08:49:05.227Z,7.40
2023-05-14T08:50:05.155Z,7.60
2023-05-14T08:51:05.051Z,7.60
2023-05-14T08:52:05.055Z,7.20
2023-05-14T08:53:05.033Z,6.10
2023-05-14T08:54:05.022Z,5.40
2023-05-14T08:55:05.018Z,5.70
2023-05-14T08:56:05.029Z,6.10
2023-05-14T08:57:04.993Z,5.90
2023-05-14T08:58:05.019Z,5.40
2023-05-14T08:59:05.009Z,6.60
2023-05-14T09:00:05.043Z,5.80
2023-05-14T09:01:04.990Z,5.40
2023-05-14T09:02:05.056Z,5.70
2023-05-14T09:03:04.969Z,5.30
2023-05-14T09:04:04.943Z,5.00
2023-05-14T09:05:07.035Z,5.40
2023-05-14T09:06:04.952Z,5.40
2023-05-14T09:07:04.881Z,5.50
2023-05-14T09:08:04.885Z,5.10
2023-05-14T09:09:04.926Z,5.50
2023-05-14T09:10:04.916Z,5.80
2023-05-14T09:11:04.876Z,5.00
2023-05-14T09:12:04.840Z,4.70
2023-05-14T09:13:04.814Z,4.90
2023-05-14T09:14:04.827Z,5.80
2023-05-14T09:15:04.805Z,6.10
2023-05-14T09:16:04.893Z,6.20
2023-05-14T09:17:04.774Z,5.70
2023-05-14T09:18:04.890Z,5.00
2023-05-14T09:19:04.832Z,5.70
2023-05-14T09:20:04.794Z,5.50
2023-05-14T09:21:04.744Z,4.70
2023-05-14T09:22:04.727Z,4.80
2023-05-14T09:23:04.764Z,5.20
2023-05-14T09:24:04.711Z,3.90
2023-05-14T09:25:04.710Z,4.00
2023-05-14T09:26:04.678Z,4.20
2023-05-14T09:27:04.696Z,3.80
2023-05-14T09:28:04.688Z,3.70
2023-05-14T09:29:04.645Z,4.00
2023-05-14T09:30:04.687Z,3.90
2023-05-14T09:31:04.679Z,4.60
2023-05-14T09:32:04.909Z,4.00
2023-05-14T09:33:06.499Z,3.90
2023-05-14T09:34:04.588Z,3.70
2023-05-14T09:35:04.613Z,3.60
2023-05-14T09:36:04.589Z,3.30
2023-05-14T09:37:04.560Z,3.50
2023-05-14T09:38:04.589Z,3.30
2023-05-14T09:39:04.550Z,3.50
2023-05-14T09:40:04.545Z,3.40
2023-05-14T09:41:04.610Z,3.40
2023-05-14T09:42:04.513Z,3.60
2023-05-14T09:43:04.483Z,3.30
2023-05-14T09:44:06.127Z,3.60
2023-05-14T09:45:04.471Z,3.10
2023-05-14T09:46:04.519Z,3.20
2023-05-14T09:47:04.475Z,3.20
2023-05-14T09:48:04.594Z,3.20
2023-05-14T09:49:04.450Z,3.00
2023-05-14T09:50:04.417Z,3.00
2023-05-14T09:51:04.968Z,3.40
2023-05-14T09:52:04.396Z,3.30
2023-05-14T09:53:04.413Z,3.20
2023-05-14T09:54:04.376Z,3.40
2023-05-14T09:55:04.363Z,3.30
2023-05-14T09:56:04.352Z,2.90
2023-05-14T09:57:04.342Z,3.10
2023-05-14T09:58:04.397Z,3.20
2023-05-14T09:59:06.149Z,3.50
2023-05-14T10:00:04.302Z,3.20
2023-05-14T10:01:04.412Z,3.20
2023-05-14T10:02:04.286Z,3.80
2023-05-14T10:03:04.314Z,3.30
2023-05-14T10:04:04.332Z,3.50
2023-05-14T10:05:04.335Z,3.20
2023-05-14T10:06:06.052Z,3.10
2023-05-14T10:07:04.237Z,3.40
2023-05-14T10:08:04.237Z,3.20
2023-05-14T10:09:04.209Z,3.50
2023-05-14T10:10:04.236Z,3.10
2023-05-14T10:11:04.184Z,3.10
2023-05-14T10:12:04.217Z,3.30
2023-05-14T10:13:04.159Z,3.00
2023-05-14T10:14:04.200Z,3.00
2023-05-14T10:15:04.138Z,3.10
2023-05-14T10:16:04.169Z,3.00
2023-05-14T10:17:04.133Z,3.00
2023-05-14T10:18:04.129Z,2.90
2023-05-14T10:19:04.206Z,2.90
2023-05-14T10:20:04.092Z,3.30
2023-05-14T10:21:04.072Z,3.20
2023-05-14T10:22:04.228Z,3.20
2023-05-14T10:23:04.057Z,3.50
2023-05-14T10:24:04.050Z,3.40
2023-05-14T10:25:04.068Z,3.20
2023-05-14T10:26:04.034Z,3.50
2023-05-14T10:27:04.016Z,2.90
2023-05-14T10:28:04.062Z,3.10
2023-05-14T10:29:03.988Z,3.20
2023-05-14T10:30:03.979Z,3.10
2023-05-14T10:31:04.017Z,3.10
2023-05-14T10:32:04.006Z,3.00
2023-05-14T10:33:04.007Z,3.20
2023-05-14T10:34:03.958Z,3.10
2023-05-14T10:35:03.923Z,3.00
2023-05-14T10:36:03.939Z,3.40
2023-05-14T10:37:04.048Z,3.20
2023-05-14T10:38:03.892Z,3.10
2023-05-14T10:39:03.877Z,2.90
2023-05-14T10:40:03.877Z,3.00
2023-05-14T10:41:03.871Z,2.80
2023-05-14T10:42:03.925Z,2.80
2023-05-14T10:43:03.838Z,2.80
2023-05-14T10:44:03.838Z,2.90
2023-05-14T10:45:03.816Z,2.80
2023-05-14T10:46:03.831Z,3.00
2023-05-14T10:47:03.939Z,2.80
2023-05-14T10:48:03.825Z,2.80
2023-05-14T10:49:03.771Z,2.80
2023-05-14T10:50:03.769Z,2.60
2023-05-14T10:51:03.847Z,2.80
2023-05-14T10:52:05.204Z,2.90
2023-05-14T10:53:03.725Z,3.50
2023-05-14T10:54:03.717Z,3.20
2023-05-14T10:55:04.048Z,3.30
2023-05-14T10:56:03.717Z,3.00
2023-05-14T10:57:03.676Z,3.10
2023-05-14T10:58:05.357Z,2.70
2023-05-14T10:59:03.659Z,2.80
2023-05-14T11:00:03.672Z,3.30
2023-05-14T11:01:03.637Z,3.50
2023-05-14T11:02:03.704Z,3.10
2023-05-14T11:03:03.671Z,3.10
2023-05-14T11:04:03.671Z,2.80
2023-05-14T11:05:03.610Z,3.00
2023-05-14T11:06:03.599Z,3.00
2023-05-14T11:07:03.585Z,2.90
2023-05-14T11:08:06.282Z,2.90
2023-05-14T11:09:03.561Z,3.10
2023-05-14T11:10:03.538Z,2.80
2023-05-14T11:11:03.579Z,2.90
2023-05-14T11:12:03.524Z,3.00
2023-05-14T11:13:03.541Z,2.80
2023-05-14T11:14:03.551Z,3.30
2023-05-14T11:15:03.581Z,3.00
2023-05-14T11:17:03.554Z,3.70
2023-05-14T11:18:03.516Z,3.60
2023-05-14T11:19:03.863Z,4.40
2023-05-14T11:20:03.439Z,3.30
2023-05-14T11:21:03.474Z,3.20
2023-05-14T11:22:03.433Z,3.00
2023-05-14T11:23:03.401Z,2.80
2023-05-14T11:24:03.386Z,2.80
2023-05-14T11:25:03.389Z,3.20
2023-05-14T11:26:03.557Z,2.90
2023-05-14T11:27:03.361Z,3.10
2023-05-14T11:28:03.350Z,3.10
2023-05-14T11:29:03.343Z,3.10
2023-05-14T11:30:03.356Z,3.00
2023-05-14T11:31:03.321Z,3.60
2023-05-14T11:32:03.519Z,3.30
2023-05-14T11:33:03.361Z,3.60
2023-05-14T11:34:03.322Z,3.00
2023-05-14T11:35:03.298Z,3.50
2023-05-14T11:36:03.313Z,3.30
2023-05-14T11:37:03.294Z,3.90
2023-05-14T11:38:03.242Z,3.60
2023-05-14T11:39:03.291Z,2.80
2023-05-14T11:40:03.340Z,2.80
2023-05-14T11:41:03.295Z,2.90
2023-05-14T11:42:03.192Z,2.70
2023-05-14T11:43:03.337Z,2.70
2023-05-14T11:44:03.267Z,3.40
2023-05-14T11:45:03.165Z,3.00
2023-05-14T11:46:03.230Z,3.10
2023-05-14T11:47:03.152Z,3.00
2023-05-14T11:48:03.263Z,3.20
2023-05-14T11:49:03.152Z,3.40
2023-05-14T11:50:03.156Z,3.50
2023-05-14T11:51:03.097Z,3.00
2023-05-14T11:52:03.094Z,3.30
2023-05-14T11:53:03.088Z,3.50
2023-05-14T11:54:03.116Z,3.10
2023-05-14T11:55:03.089Z,3.00
2023-05-14T11:56:05.686Z,3.80
2023-05-14T11:57:03.040Z,3.40
2023-05-14T11:58:03.037Z,3.60
2023-05-14T11:59:03.024Z,3.30
2023-05-14T12:00:03.007Z,3.10
2023-05-14T12:01:03.034Z,3.10
2023-05-14T12:02:02.997Z,2.90
2023-05-14T12:03:03.030Z,2.70
2023-05-14T12:04:03.071Z,2.60
2023-05-14T12:05:03.073Z,2.90
2023-05-14T12:06:02.940Z,3.10
2023-05-14T12:07:02.940Z,3.40
2023-05-14T12:08:02.909Z,2.90
2023-05-14T12:09:02.925Z,2.80
2023-05-14T12:10:02.896Z,2.90
2023-05-14T12:11:04.493Z,2.90
2023-05-14T12:12:02.876Z,3.00
2023-05-14T12:13:02.868Z,5.50
2023-05-14T12:14:02.846Z,4.60
2023-05-14T12:15:02.848Z,3.50
2023-05-14T12:16:04.445Z,2.90
2023-05-14T12:17:04.616Z,2.80
2023-05-14T12:18:03.746Z,2.70
2023-05-14T12:19:02.876Z,2.50
2023-05-14T12:20:02.782Z,2.90
2023-05-14T12:21:02.806Z,3.10
2023-05-14T12:22:02.800Z,2.80
2023-05-14T12:23:02.754Z,3.10
2023-05-14T12:24:02.739Z,3.00
2023-05-14T12:25:02.735Z,2.80
2023-05-14T12:26:02.853Z,2.90
2023-05-14T12:27:02.721Z,2.60
2023-05-14T12:28:02.697Z,2.90
2023-05-14T12:29:02.691Z,2.70
2023-05-14T12:30:16.865Z,3.00
2023-05-14T12:31:03.802Z,3.10
2023-05-14T12:32:02.686Z,2.70
2023-05-14T12:33:02.710Z,2.80
2023-05-14T12:34:02.647Z,2.50
2023-05-14T12:35:04.397Z,2.90
2023-05-14T12:36:17.599Z,5.10
2023-05-14T12:37:03.662Z,3.80
2023-05-14T12:38:02.592Z,2.80
2023-05-14T12:39:02.584Z,2.60
2023-05-14T12:40:02.611Z,2.90
2023-05-14T12:41:02.578Z,2.50
2023-05-14T12:42:02.541Z,2.60
2023-05-14T12:43:04.298Z,2.90
2023-05-14T12:44:02.524Z,3.30
2023-05-14T12:45:02.538Z,2.90
2023-05-14T12:46:02.499Z,2.50
2023-05-14T12:47:02.514Z,2.90
2023-05-14T12:48:02.523Z,2.90
2023-05-14T12:49:04.202Z,2.90
2023-05-14T12:50:02.460Z,2.80
2023-05-14T12:51:02.458Z,2.90
2023-05-14T12:52:17.337Z,2.50
2023-05-14T12:53:03.490Z,2.70
2023-05-14T12:54:02.456Z,2.70
2023-05-14T12:55:02.421Z,2.60
2023-05-14T12:56:02.388Z,2.60
2023-05-14T12:57:02.392Z,2.90
2023-05-14T12:58:07.583Z,2.50
2023-05-14T12:59:02.370Z,2.40
2023-05-14T13:00:02.357Z,2.40
2023-05-14T13:01:02.406Z,2.50
2023-05-14T13:02:02.717Z,2.60
2023-05-14T13:03:02.357Z,3.30
2023-05-14T13:04:02.368Z,3.50
2023-05-14T13:05:03.774Z,3.00
2023-05-14T13:06:02.295Z,2.60